sensor_id;sensor_type;location;lat;lon;timestamp;P1;durP1;ratioP1;P2;durP2;ratioP2
69917;SDS011;57203;42.672;23.334;2022-07-29T00:00:58;11.0;;;10.3;;
69917;SDS011;57203;42.672;23.334;2022-07-29T00:01:59;12.1;;;10.6;;
69917;SDS011;57203;42.672;23.334;2022-07-29T00:02:59;14.0;;;10.2;;
69917;SDS011;57203;42.672;23.334;2022-07-29T00:03:59;11.3;;;9.8;;
69917;SDS011;57203;42.672;23.334;2022-07-29T00:05:00;11.1;;;10.0;;
69917;SDS011;57203;42.672;23.334;2022-07-29T00:06:00;11.1;;;9.8;;
69917;SDS011;57203;42.672;23.334;2022-07-29T00:07:00;11.5;;;9.4;;
69917;SDS011;57203;42.672;23.334;2022-07-29T00:08:00;11.5;;;9.7;;
69917;SDS011;57203;42.672;23.334;2022-07-29T00:09:00;11.1;;;9.5;;
69917;SDS011;57203;42.672;23.334;2022-07-29T00:10:00;10.5;;;9.6;;
69917;SDS011;57203;42.672;23.334;2022-07-29T00:12:01;11.4;;;9.9;;
69917;SDS011;57203;42.672;23.334;2022-07-29T00:13:01;11.7;;;10.3;;
69917;SDS011;57203;42.672;23.334;2022-07-29T00:14:01;11.5;;;9.4;;
69917;SDS011;57203;42.672;23.334;2022-07-29T00:15:02;10.5;;;9.7;;
69917;SDS011;57203;42.672;23.334;2022-07-29T00:16:02;12.6;;;9.6;;
69917;SDS011;57203;42.672;23.334;2022-07-29T00:17:02;11.4;;;9.3;;
69917;SDS011;57203;42.672;23.334;2022-07-29T00:18:02;10.4;;;9.1;;
69917;SDS011;57203;42.672;23.334;2022-07-29T00:20:03;11.0;;;9.5;;
69917;SDS011;57203;42.672;23.334;2022-07-29T00:21:03;11.7;;;9.7;;
69917;SDS011;57203;42.672;23.334;2022-07-29T00:22:03;12.4;;;8.6;;
69917;SDS011;57203;42.672;23.334;2022-07-29T00:23:03;9.6;;;9.7;;
69917;SDS011;57203;42.672;23.334;2022-07-29T00:24:04;10.8;;;9.3;;
69917;SDS011;57203;42.672;23.334;2022-07-29T00:25:04;11.5;;;9.4;;
69917;SDS011;57203;42.672;23.334;2022-07-29T00:26:04;10.5;;;9.0;;
69917;SDS011;57203;42.672;23.334;2022-07-29T00:28:05;10.1;;;8.9;;
69917;SDS011;57203;42.672;23.334;2022-07-29T00:29:05;10.5;;;9.4;;
69917;SDS011;57203;42.672;23.334;2022-07-29T00:30:06;10.5;;;9.1;;
69917;SDS011;57203;42.672;23.334;2022-07-29T00:32:06;11.4;;;9.0;;
69917;SDS011;57203;42.672;23.334;2022-07-29T00:33:06;10.3;;;9.4;;
69917;SDS011;57203;42.672;23.334;2022-07-29T00:34:06;12.1;;;9.0;;
69917;SDS011;57203;42.672;23.334;2022-07-29T00:35:07;10.3;;;9.1;;
69917;SDS011;57203;42.672;23.334;2022-07-29T00:36:06;10.5;;;9.4;;
69917;SDS011;57203;42.672;23.334;2022-07-29T00:38:07;12.0;;;9.6;;
69917;SDS011;57203;42.672;23.334;2022-07-29T00:39:07;12.0;;;9.4;;
69917;SDS011;57203;42.672;23.334;2022-07-29T00:40:08;10.6;;;9.3;;
69917;SDS011;57203;42.672;23.334;2022-07-29T00:41:07;10.4;;;8.8;;
69917;SDS011;57203;42.672;23.334;2022-07-29T00:42:08;9.8;;;8.9;;
69917;SDS011;57203;42.672;23.334;2022-07-29T00:43:08;10.3;;;8.6;;
69917;SDS011;57203;42.672;23.334;2022-07-29T00:44:08;11.0;;;9.3;;
69917;SDS011;57203;42.672;23.334;2022-07-29T00:45:09;11.0;;;9.4;;
69917;SDS011;57203;42.672;23.334;2022-07-29T00:46:09;11.9;;;10.1;;
69917;SDS011;57203;42.672;23.334;2022-07-29T00:47:10;12.8;;;9.9;;
69917;SDS011;57203;42.672;23.334;2022-07-29T00:48:09;11.4;;;9.5;;
69917;SDS011;57203;42.672;23.334;2022-07-29T00:49:09;11.3;;;9.7;;
69917;SDS011;57203;42.672;23.334;2022-07-29T00:50:10;10.9;;;9.6;;
69917;SDS011;57203;42.672;23.334;2022-07-29T00:51:10;10.9;;;9.4;;
69917;SDS011;57203;42.672;23.334;2022-07-29T00:52:10;12.0;;;9.1;;
69917;SDS011;57203;42.672;23.334;2022-07-29T00:53:10;10.9;;;9.8;;
69917;SDS011;57203;42.672;23.334;2022-07-29T00:54:10;11.8;;;10.4;;
69917;SDS011;57203;42.672;23.334;2022-07-29T00:56:11;11.9;;;10.6;;
69917;SDS011;57203;42.672;23.334;2022-07-29T00:57:11;11.9;;;10.4;;
69917;SDS011;57203;42.672;23.334;2022-07-29T00:58:11;11.6;;;10.3;;
69917;SDS011;57203;42.672;23.334;2022-07-29T00:59:11;11.5;;;9.7;;
69917;SDS011;57203;42.672;23.334;2022-07-29T01:01:12;10.8;;;11.1;;
69917;SDS011;57203;42.672;23.334;2022-07-29T01:02:12;16.6;;;9.8;;
69917;SDS011;57203;42.672;23.334;2022-07-29T01:03:12;11.0;;;10.3;;
69917;SDS011;57203;42.672;23.334;2022-07-29T01:04:13;13.3;;;10.6;;
69917;SDS011;57203;42.672;23.334;2022-07-29T01:05:13;11.8;;;12.0;;
69917;SDS011;57203;42.672;23.334;2022-07-29T01:06:13;13.6;;;12.9;;
69917;SDS011;57203;42.672;23.334;2022-07-29T01:07:13;14.4;;;13.5;;
69917;SDS011;57203;42.672;23.334;2022-07-29T01:08:14;15.4;;;14.0;;
69917;SDS011;57203;42.672;23.334;2022-07-29T01:09:14;15.6;;;13.9;;
69917;SDS011;57203;42.672;23.334;2022-07-29T01:10:14;15.5;;;14.6;;
69917;SDS011;57203;42.672;23.334;2022-07-29T01:11:14;16.7;;;14.5;;
69917;SDS011;57203;42.672;23.334;2022-07-29T01:12:15;17.5;;;15.5;;
69917;SDS011;57203;42.672;23.334;2022-07-29T01:13:15;18.7;;;15.2;;
69917;SDS011;57203;42.672;23.334;2022-07-29T01:14:15;18.1;;;15.9;;
69917;SDS011;57203;42.672;23.334;2022-07-29T01:15:15;17.8;;;14.5;;
69917;SDS011;57203;42.672;23.334;2022-07-29T01:16:18;19.8;;;16.4;;
69917;SDS011;57203;42.672;23.334;2022-07-29T01:17:17;19.8;;;15.9;;
69917;SDS011;57203;42.672;23.334;2022-07-29T01:18:16;18.7;;;15.2;;
69917;SDS011;57203;42.672;23.334;2022-07-29T01:19:19;17.7;;;15.1;;
69917;SDS011;57203;42.672;23.334;2022-07-29T01:20:18;17.8;;;15.5;;
69917;SDS011;57203;42.672;23.334;2022-07-29T01:24:23;17.5;;;15.5;;
69917;SDS011;57203;42.672;23.334;2022-07-29T01:25:19;17.8;;;15.8;;
69917;SDS011;57203;42.672;23.334;2022-07-29T01:26:25;18.4;;;14.9;;
69917;SDS011;57203;42.672;23.334;2022-07-29T01:27:23;16.7;;;15.7;;
69917;SDS011;57203;42.672;23.334;2022-07-29T01:29:21;19.9;;;16.0;;
69917;SDS011;57203;42.672;23.334;2022-07-29T01:30:18;19.9;;;16.1;;
69917;SDS011;57203;42.672;23.334;2022-07-29T01:31:20;18.1;;;15.7;;
69917;SDS011;57203;42.672;23.334;2022-07-29T01:32:19;17.9;;;15.4;;
69917;SDS011;57203;42.672;23.334;2022-07-29T01:33:19;17.7;;;16.4;;
69917;SDS011;57203;42.672;23.334;2022-07-29T01:34:20;18.4;;;15.3;;
69917;SDS011;57203;42.672;23.334;2022-07-29T01:35:20;16.5;;;14.3;;
69917;SDS011;57203;42.672;23.334;2022-07-29T01:36:22;16.5;;;14.9;;
69917;SDS011;57203;42.672;23.334;2022-07-29T01:37:21;19.1;;;13.0;;
69917;SDS011;57203;42.672;23.334;2022-07-29T01:38:21;18.7;;;14.1;;
69917;SDS011;57203;42.672;23.334;2022-07-29T01:39:22;18.7;;;12.9;;
69917;SDS011;57203;42.672;23.334;2022-07-29T01:40:22;15.0;;;13.3;;
69917;SDS011;57203;42.672;23.334;2022-07-29T01:41:21;15.1;;;12.7;;
69917;SDS011;57203;42.672;23.334;2022-07-29T01:42:23;14.2;;;13.2;;
69917;SDS011;57203;42.672;23.334;2022-07-29T01:43:23;15.5;;;13.4;;
69917;SDS011;57203;42.672;23.334;2022-07-29T01:44:22;15.5;;;14.1;;
69917;SDS011;57203;42.672;23.334;2022-07-29T01:45:23;17.0;;;14.0;;
69917;SDS011;57203;42.672;23.334;2022-07-29T01:46:25;17.1;;;13.8;;
69917;SDS011;57203;42.672;23.334;2022-07-29T01:47:23;17.1;;;13.7;;
69917;SDS011;57203;42.672;23.334;2022-07-29T01:48:23;17.0;;;14.9;;
69917;SDS011;57203;42.672;23.334;2022-07-29T01:49:25;19.8;;;15.1;;
69917;SDS011;57203;42.672;23.334;2022-07-29T01:51:24;18.0;;;15.3;;
69917;SDS011;57203;42.672;23.334;2022-07-29T01:52:24;17.1;;;16.3;;
69917;SDS011;57203;42.672;23.334;2022-07-29T01:53:24;18.2;;;15.6;;
69917;SDS011;57203;42.672;23.334;2022-07-29T01:54:25;17.5;;;15.2;;
69917;SDS011;57203;42.672;23.334;2022-07-29T01:55:25;17.0;;;15.8;;
69917;SDS011;57203;42.672;23.334;2022-07-29T01:56:24;17.8;;;15.7;;
69917;SDS011;57203;42.672;23.334;2022-07-29T01:57:25;19.6;;;15.4;;
69917;SDS011;57203;42.672;23.334;2022-07-29T01:58:24;18.9;;;15.2;;
69917;SDS011;57203;42.672;23.334;2022-07-29T01:59:25;18.9;;;14.9;;
69917;SDS011;57203;42.672;23.334;2022-07-29T02:00:25;17.6;;;15.8;;
69917;SDS011;57203;42.672;23.334;2022-07-29T02:02:26;16.4;;;14.4;;
69917;SDS011;57203;42.672;23.334;2022-07-29T02:03:25;16.4;;;15.0;;
69917;SDS011;57203;42.672;23.334;2022-07-29T02:04:26;17.6;;;14.8;;
69917;SDS011;57203;42.672;23.334;2022-07-29T02:05:26;16.5;;;15.3;;
69917;SDS011;57203;42.672;23.334;2022-07-29T02:06:26;18.7;;;14.2;;
69917;SDS011;57203;42.672;23.334;2022-07-29T02:07:27;16.3;;;14.9;;
69917;SDS011;57203;42.672;23.334;2022-07-29T02:08:26;17.9;;;15.8;;
69917;SDS011;57203;42.672;23.334;2022-07-29T02:09:27;19.5;;;16.5;;
69917;SDS011;57203;42.672;23.334;2022-07-29T02:10:28;19.5;;;15.0;;
69917;SDS011;57203;42.672;23.334;2022-07-29T02:11:27;18.2;;;15.6;;
69917;SDS011;57203;42.672;23.334;2022-07-29T02:12:27;21.0;;;16.5;;
69917;SDS011;57203;42.672;23.334;2022-07-29T02:13:28;21.0;;;16.8;;
69917;SDS011;57203;42.672;23.334;2022-07-29T02:14:28;19.8;;;16.3;;
69917;SDS011;57203;42.672;23.334;2022-07-29T02:15:28;19.8;;;17.2;;
69917;SDS011;57203;42.672;23.334;2022-07-29T02:16:28;20.9;;;16.1;;
69917;SDS011;57203;42.672;23.334;2022-07-29T02:17:31;19.3;;;16.8;;
69917;SDS011;57203;42.672;23.334;2022-07-29T02:18:29;19.5;;;17.1;;
69917;SDS011;57203;42.672;23.334;2022-07-29T02:19:29;19.8;;;16.7;;
69917;SDS011;57203;42.672;23.334;2022-07-29T02:20:29;20.5;;;16.4;;
69917;SDS011;57203;42.672;23.334;2022-07-29T02:21:29;19.6;;;16.5;;
69917;SDS011;57203;42.672;23.334;2022-07-29T02:23:30;20.5;;;16.6;;
69917;SDS011;57203;42.672;23.334;2022-07-29T02:24:30;18.7;;;17.1;;
69917;SDS011;57203;42.672;23.334;2022-07-29T02:25:30;21.3;;;15.8;;
69917;SDS011;57203;42.672;23.334;2022-07-29T02:27:31;17.8;;;14.8;;
69917;SDS011;57203;42.672;23.334;2022-07-29T02:28:31;17.4;;;15.5;;
69917;SDS011;57203;42.672;23.334;2022-07-29T02:29:31;17.4;;;14.5;;
69917;SDS011;57203;42.672;23.334;2022-07-29T02:30:31;16.2;;;14.4;;
69917;SDS011;57203;42.672;23.334;2022-07-29T02:31:32;16.3;;;15.6;;
69917;SDS011;57203;42.672;23.334;2022-07-29T02:32:31;17.5;;;14.8;;
69917;SDS011;57203;42.672;23.334;2022-07-29T02:33:32;16.7;;;14.9;;
69917;SDS011;57203;42.672;23.334;2022-07-29T02:34:32;17.9;;;14.2;;
69917;SDS011;57203;42.672;23.334;2022-07-29T02:35:32;17.8;;;14.0;;
69917;SDS011;57203;42.672;23.334;2022-07-29T02:36:32;16.6;;;14.5;;
69917;SDS011;57203;42.672;23.334;2022-07-29T02:37:33;16.6;;;14.6;;
69917;SDS011;57203;42.672;23.334;2022-07-29T02:38:33;18.8;;;13.9;;
69917;SDS011;57203;42.672;23.334;2022-07-29T02:39:33;17.7;;;14.5;;
69917;SDS011;57203;42.672;23.334;2022-07-29T02:40:34;16.6;;;14.8;;
69917;SDS011;57203;42.672;23.334;2022-07-29T02:41:35;16.9;;;14.5;;
69917;SDS011;57203;42.672;23.334;2022-07-29T02:42:34;16.9;;;15.1;;
69917;SDS011;57203;42.672;23.334;2022-07-29T02:43:34;18.4;;;14.6;;
69917;SDS011;57203;42.672;23.334;2022-07-29T02:44:34;16.7;;;15.7;;
69917;SDS011;57203;42.672;23.334;2022-07-29T02:45:34;17.9;;;14.4;;
69917;SDS011;57203;42.672;23.334;2022-07-29T02:46:35;16.8;;;14.1;;
69917;SDS011;57203;42.672;23.334;2022-07-29T02:47:36;15.8;;;14.3;;
69917;SDS011;57203;42.672;23.334;2022-07-29T02:48:37;16.0;;;13.8;;
69917;SDS011;57203;42.672;23.334;2022-07-29T02:49:36;18.3;;;13.2;;
69917;SDS011;57203;42.672;23.334;2022-07-29T02:50:37;15.4;;;13.6;;
69917;SDS011;57203;42.672;23.334;2022-07-29T02:51:43;17.3;;;13.5;;
69917;SDS011;57203;42.672;23.334;2022-07-29T02:52:37;15.2;;;13.3;;
69917;SDS011;57203;42.672;23.334;2022-07-29T02:53:36;15.3;;;13.5;;
69917;SDS011;57203;42.672;23.334;2022-07-29T02:54:38;16.4;;;13.1;;
69917;SDS011;57203;42.672;23.334;2022-07-29T02:55:37;14.8;;;13.2;;
69917;SDS011;57203;42.672;23.334;2022-07-29T02:56:37;14.8;;;12.9;;
69917;SDS011;57203;42.672;23.334;2022-07-29T02:57:39;14.4;;;12.6;;
69917;SDS011;57203;42.672;23.334;2022-07-29T02:58:38;16.5;;;12.3;;
69917;SDS011;57203;42.672;23.334;2022-07-29T02:59:37;16.2;;;11.7;;
69917;SDS011;57203;42.672;23.334;2022-07-29T03:00:38;13.7;;;12.2;;
69917;SDS011;57203;42.672;23.334;2022-07-29T03:01:39;15.6;;;11.4;;
69917;SDS011;57203;42.672;23.334;2022-07-29T03:02:39;13.7;;;12.2;;
69917;SDS011;57203;42.672;23.334;2022-07-29T03:03:38;13.7;;;13.1;;
69917;SDS011;57203;42.672;23.334;2022-07-29T03:04:39;14.9;;;13.2;;
69917;SDS011;57203;42.672;23.334;2022-07-29T03:06:39;15.4;;;12.9;;
69917;SDS011;57203;42.672;23.334;2022-07-29T03:07:39;14.7;;;11.9;;
69917;SDS011;57203;42.672;23.334;2022-07-29T03:08:39;13.3;;;12.0;;
69917;SDS011;57203;42.672;23.334;2022-07-29T03:09:40;14.8;;;11.2;;
69917;SDS011;57203;42.672;23.334;2022-07-29T03:10:42;12.9;;;11.6;;
69917;SDS011;57203;42.672;23.334;2022-07-29T03:11:40;12.9;;;11.1;;
69917;SDS011;57203;42.672;23.334;2022-07-29T03:13:40;12.8;;;10.9;;
69917;SDS011;57203;42.672;23.334;2022-07-29T03:14:41;12.8;;;10.1;;
69917;SDS011;57203;42.672;23.334;2022-07-29T03:15:42;12.8;;;10.4;;
69917;SDS011;57203;42.672;23.334;2022-07-29T03:16:41;11.6;;;10.9;;
69917;SDS011;57203;42.672;23.334;2022-07-29T03:17:41;14.7;;;9.9;;
69917;SDS011;57203;42.672;23.334;2022-07-29T03:18:41;11.8;;;9.2;;
69917;SDS011;57203;42.672;23.334;2022-07-29T03:19:42;11.8;;;10.0;;
69917;SDS011;57203;42.672;23.334;2022-07-29T03:20:42;14.5;;;9.4;;
69917;SDS011;57203;42.672;23.334;2022-07-29T03:22:43;11.0;;;9.9;;
69917;SDS011;57203;42.672;23.334;2022-07-29T03:23:43;12.4;;;10.1;;
69917;SDS011;57203;42.672;23.334;2022-07-29T03:25:43;14.9;;;10.0;;
69917;SDS011;57203;42.672;23.334;2022-07-29T03:26:43;15.4;;;10.1;;
69917;SDS011;57203;42.672;23.334;2022-07-29T03:27:44;13.0;;;10.7;;
69917;SDS011;57203;42.672;23.334;2022-07-29T03:28:44;12.6;;;10.6;;
69917;SDS011;57203;42.672;23.334;2022-07-29T03:29:44;11.8;;;11.1;;
69917;SDS011;57203;42.672;23.334;2022-07-29T03:30:44;13.6;;;11.8;;
69917;SDS011;57203;42.672;23.334;2022-07-29T03:31:44;16.0;;;11.6;;
69917;SDS011;57203;42.672;23.334;2022-07-29T03:32:44;14.9;;;12.8;;
69917;SDS011;57203;42.672;23.334;2022-07-29T03:33:45;14.9;;;11.5;;
69917;SDS011;57203;42.672;23.334;2022-07-29T03:34:45;14.4;;;12.2;;
69917;SDS011;57203;42.672;23.334;2022-07-29T03:35:45;15.9;;;12.4;;
69917;SDS011;57203;42.672;23.334;2022-07-29T03:36:45;15.6;;;12.9;;
69917;SDS011;57203;42.672;23.334;2022-07-29T03:37:46;18.1;;;13.1;;
69917;SDS011;57203;42.672;23.334;2022-07-29T03:38:46;15.6;;;11.9;;
69917;SDS011;57203;42.672;23.334;2022-07-29T03:39:46;15.6;;;11.6;;
69917;SDS011;57203;42.672;23.334;2022-07-29T03:40:48;14.8;;;11.8;;
69917;SDS011;57203;42.672;23.334;2022-07-29T03:43:47;16.5;;;12.0;;
69917;SDS011;57203;42.672;23.334;2022-07-29T03:44:47;12.9;;;11.3;;
69917;SDS011;57203;42.672;23.334;2022-07-29T03:46:48;12.9;;;11.7;;
69917;SDS011;57203;42.672;23.334;2022-07-29T03:47:48;18.3;;;10.8;;
69917;SDS011;57203;42.672;23.334;2022-07-29T03:48:48;13.3;;;12.0;;
69917;SDS011;57203;42.672;23.334;2022-07-29T03:49:48;16.3;;;11.4;;
69917;SDS011;57203;42.672;23.334;2022-07-29T03:50:49;16.3;;;11.3;;
69917;SDS011;57203;42.672;23.334;2022-07-29T03:51:48;12.6;;;11.0;;
69917;SDS011;57203;42.672;23.334;2022-07-29T03:52:49;13.8;;;10.7;;
69917;SDS011;57203;42.672;23.334;2022-07-29T03:53:49;14.6;;;10.5;;
69917;SDS011;57203;42.672;23.334;2022-07-29T03:54:49;12.6;;;10.8;;
69917;SDS011;57203;42.672;23.334;2022-07-29T03:55:51;13.8;;;10.1;;
69917;SDS011;57203;42.672;23.334;2022-07-29T03:56:49;12.9;;;11.9;;
69917;SDS011;57203;42.672;23.334;2022-07-29T03:57:50;22.0;;;12.2;;
69917;SDS011;57203;42.672;23.334;2022-07-29T03:58:50;15.4;;;11.1;;
69917;SDS011;57203;42.672;23.334;2022-07-29T03:59:50;14.0;;;11.4;;
69917;SDS011;57203;42.672;23.334;2022-07-29T04:00:50;14.0;;;10.4;;
69917;SDS011;57203;42.672;23.334;2022-07-29T04:01:51;13.8;;;10.7;;
69917;SDS011;57203;42.672;23.334;2022-07-29T04:02:51;13.8;;;10.8;;
69917;SDS011;57203;42.672;23.334;2022-07-29T04:03:51;13.3;;;11.0;;
69917;SDS011;57203;42.672;23.334;2022-07-29T04:04:51;13.7;;;11.8;;
69917;SDS011;57203;42.672;23.334;2022-07-29T04:05:59;16.5;;;12.1;;
69917;SDS011;57203;42.672;23.334;2022-07-29T04:06:52;16.6;;;10.6;;
69917;SDS011;57203;42.672;23.334;2022-07-29T04:07:52;16.6;;;10.9;;
69917;SDS011;57203;42.672;23.334;2022-07-29T04:08:52;14.9;;;10.7;;
69917;SDS011;57203;42.672;23.334;2022-07-29T04:09:52;14.1;;;10.3;;
69917;SDS011;57203;42.672;23.334;2022-07-29T04:10:52;12.7;;;11.2;;
69917;SDS011;57203;42.672;23.334;2022-07-29T04:11:53;15.7;;;10.7;;
69917;SDS011;57203;42.672;23.334;2022-07-29T04:12:53;16.1;;;11.8;;
69917;SDS011;57203;42.672;23.334;2022-07-29T04:13:53;16.1;;;11.4;;
69917;SDS011;57203;42.672;23.334;2022-07-29T04:14:53;14.4;;;11.6;;
69917;SDS011;57203;42.672;23.334;2022-07-29T04:15:54;16.5;;;11.8;;
69917;SDS011;57203;42.672;23.334;2022-07-29T04:16:54;16.5;;;12.5;;
69917;SDS011;57203;42.672;23.334;2022-07-29T04:17:54;15.5;;;13.0;;
69917;SDS011;57203;42.672;23.334;2022-07-29T04:18:54;14.5;;;11.9;;
69917;SDS011;57203;42.672;23.334;2022-07-29T04:19:54;16.4;;;11.7;;
69917;SDS011;57203;42.672;23.334;2022-07-29T04:20:55;14.2;;;12.4;;
69917;SDS011;57203;42.672;23.334;2022-07-29T04:21:55;16.0;;;12.0;;
69917;SDS011;57203;42.672;23.334;2022-07-29T04:22:55;14.5;;;11.7;;
69917;SDS011;57203;42.672;23.334;2022-07-29T04:23:55;14.5;;;12.1;;
69917;SDS011;57203;42.672;23.334;2022-07-29T04:24:55;14.6;;;12.2;;
69917;SDS011;57203;42.672;23.334;2022-07-29T04:25:56;13.5;;;11.5;;
69917;SDS011;57203;42.672;23.334;2022-07-29T04:26:56;13.5;;;11.7;;
69917;SDS011;57203;42.672;23.334;2022-07-29T04:27:56;16.1;;;11.9;;
69917;SDS011;57203;42.672;23.334;2022-07-29T04:28:56;14.4;;;11.8;;
69917;SDS011;57203;42.672;23.334;2022-07-29T04:29:57;14.4;;;11.7;;
69917;SDS011;57203;42.672;23.334;2022-07-29T04:30:57;15.1;;;11.3;;
69917;SDS011;57203;42.672;23.334;2022-07-29T04:31:57;15.0;;;11.9;;
69917;SDS011;57203;42.672;23.334;2022-07-29T04:32:57;15.0;;;11.8;;
69917;SDS011;57203;42.672;23.334;2022-07-29T04:33:57;14.7;;;10.9;;
69917;SDS011;57203;42.672;23.334;2022-07-29T04:34:58;14.5;;;11.3;;
69917;SDS011;57203;42.672;23.334;2022-07-29T04:35:58;13.9;;;12.0;;
69917;SDS011;57203;42.672;23.334;2022-07-29T04:36:58;16.1;;;11.5;;
69917;SDS011;57203;42.672;23.334;2022-07-29T04:37:59;14.3;;;11.2;;
69917;SDS011;57203;42.672;23.334;2022-07-29T04:39:59;13.6;;;12.1;;
69917;SDS011;57203;42.672;23.334;2022-07-29T04:40:59;18.0;;;11.6;;
69917;SDS011;57203;42.672;23.334;2022-07-29T04:41:59;14.9;;;10.9;;
69917;SDS011;57203;42.672;23.334;2022-07-29T04:42:59;15.1;;;11.3;;
69917;SDS011;57203;42.672;23.334;2022-07-29T04:44:00;13.0;;;11.7;;
69917;SDS011;57203;42.672;23.334;2022-07-29T04:45:00;13.9;;;11.2;;
69917;SDS011;57203;42.672;23.334;2022-07-29T04:46:00;13.4;;;10.6;;
69917;SDS011;57203;42.672;23.334;2022-07-29T04:47:00;13.4;;;11.7;;
69917;SDS011;57203;42.672;23.334;2022-07-29T04:48:01;14.8;;;11.4;;
69917;SDS011;57203;42.672;23.334;2022-07-29T04:49:01;15.8;;;10.3;;
69917;SDS011;57203;42.672;23.334;2022-07-29T04:50:01;13.2;;;10.9;;
69917;SDS011;57203;42.672;23.334;2022-07-29T04:51:01;13.2;;;11.2;;
69917;SDS011;57203;42.672;23.334;2022-07-29T04:52:01;14.1;;;11.0;;
69917;SDS011;57203;42.672;23.334;2022-07-29T04:53:02;14.1;;;10.4;;
69917;SDS011;57203;42.672;23.334;2022-07-29T04:54:02;14.7;;;10.5;;
69917;SDS011;57203;42.672;23.334;2022-07-29T04:56:02;13.7;;;10.8;;
69917;SDS011;57203;42.672;23.334;2022-07-29T04:57:02;13.7;;;10.3;;
69917;SDS011;57203;42.672;23.334;2022-07-29T04:58:03;13.4;;;9.4;;
69917;SDS011;57203;42.672;23.334;2022-07-29T04:59:03;10.9;;;9.9;;
69917;SDS011;57203;42.672;23.334;2022-07-29T05:00:04;13.2;;;10.1;;
69917;SDS011;57203;42.672;23.334;2022-07-29T05:01:03;12.9;;;10.4;;
69917;SDS011;57203;42.672;23.334;2022-07-29T05:02:03;12.7;;;10.1;;
69917;SDS011;57203;42.672;23.334;2022-07-29T05:03:04;11.4;;;10.0;;
69917;SDS011;57203;42.672;23.334;2022-07-29T05:04:04;12.6;;;10.2;;
69917;SDS011;57203;42.672;23.334;2022-07-29T05:05:04;13.6;;;9.8;;
69917;SDS011;57203;42.672;23.334;2022-07-29T05:06:04;12.6;;;9.9;;
69917;SDS011;57203;42.672;23.334;2022-07-29T05:07:05;15.3;;;10.4;;
69917;SDS011;57203;42.672;23.334;2022-07-29T05:08:05;12.8;;;10.8;;
69917;SDS011;57203;42.672;23.334;2022-07-29T05:09:05;14.6;;;10.3;;
69917;SDS011;57203;42.672;23.334;2022-07-29T05:10:05;15.2;;;11.3;;
69917;SDS011;57203;42.672;23.334;2022-07-29T05:11:06;16.8;;;9.8;;
69917;SDS011;57203;42.672;23.334;2022-07-29T05:12:06;13.2;;;9.9;;
69917;SDS011;57203;42.672;23.334;2022-07-29T05:13:06;13.2;;;9.8;;
69917;SDS011;57203;42.672;23.334;2022-07-29T05:14:06;13.0;;;9.4;;
69917;SDS011;57203;42.672;23.334;2022-07-29T05:15:07;12.5;;;9.6;;
69917;SDS011;57203;42.672;23.334;2022-07-29T05:16:07;16.0;;;9.9;;
69917;SDS011;57203;42.672;23.334;2022-07-29T05:17:07;10.9;;;9.1;;
69917;SDS011;57203;42.672;23.334;2022-07-29T05:18:07;10.9;;;9.6;;
69917;SDS011;57203;42.672;23.334;2022-07-29T05:19:07;15.8;;;9.5;;
69917;SDS011;57203;42.672;23.334;2022-07-29T05:20:08;15.8;;;8.9;;
69917;SDS011;57203;42.672;23.334;2022-07-29T05:21:08;11.2;;;9.8;;
69917;SDS011;57203;42.672;23.334;2022-07-29T05:22:08;13.7;;;9.6;;
69917;SDS011;57203;42.672;23.334;2022-07-29T05:23:08;13.7;;;9.4;;
69917;SDS011;57203;42.672;23.334;2022-07-29T05:24:09;12.6;;;10.9;;
69917;SDS011;57203;42.672;23.334;2022-07-29T05:25:09;12.5;;;9.4;;
69917;SDS011;57203;42.672;23.334;2022-07-29T05:26:09;12.5;;;9.7;;
69917;SDS011;57203;42.672;23.334;2022-07-29T05:27:09;13.8;;;9.5;;
69917;SDS011;57203;42.672;23.334;2022-07-29T05:28:10;10.6;;;9.6;;
69917;SDS011;57203;42.672;23.334;2022-07-29T05:29:10;12.4;;;10.1;;
69917;SDS011;57203;42.672;23.334;2022-07-29T05:30:10;13.2;;;8.7;;
69917;SDS011;57203;42.672;23.334;2022-07-29T05:31:10;12.7;;;8.3;;
69917;SDS011;57203;42.672;23.334;2022-07-29T05:32:10;12.4;;;9.7;;
69917;SDS011;57203;42.672;23.334;2022-07-29T05:33:11;11.5;;;8.3;;
69917;SDS011;57203;42.672;23.334;2022-07-29T05:34:11;11.3;;;8.6;;
69917;SDS011;57203;42.672;23.334;2022-07-29T05:35:11;10.1;;;8.7;;
69917;SDS011;57203;42.672;23.334;2022-07-29T05:36:11;11.7;;;8.5;;
69917;SDS011;57203;42.672;23.334;2022-07-29T05:37:11;10.1;;;8.2;;
69917;SDS011;57203;42.672;23.334;2022-07-29T05:38:12;10.2;;;8.3;;
69917;SDS011;57203;42.672;23.334;2022-07-29T05:39:12;13.5;;;8.1;;
69917;SDS011;57203;42.672;23.334;2022-07-29T05:40:12;11.6;;;7.9;;
69917;SDS011;57203;42.672;23.334;2022-07-29T05:41:12;9.5;;;7.4;;
69917;SDS011;57203;42.672;23.334;2022-07-29T05:42:13;10.0;;;7.2;;
69917;SDS011;57203;42.672;23.334;2022-07-29T05:43:13;9.8;;;7.9;;
69917;SDS011;57203;42.672;23.334;2022-07-29T05:44:13;10.1;;;7.7;;
69917;SDS011;57203;42.672;23.334;2022-07-29T05:45:13;11.3;;;8.0;;
69917;SDS011;57203;42.672;23.334;2022-07-29T05:46:14;10.9;;;6.7;;
69917;SDS011;57203;42.672;23.334;2022-07-29T05:47:14;9.3;;;7.3;;
69917;SDS011;57203;42.672;23.334;2022-07-29T05:48:14;9.3;;;7.7;;
69917;SDS011;57203;42.672;23.334;2022-07-29T05:49:14;10.5;;;7.3;;
69917;SDS011;57203;42.672;23.334;2022-07-29T05:50:14;9.9;;;7.8;;
69917;SDS011;57203;42.672;23.334;2022-07-29T05:51:15;9.9;;;7.3;;
69917;SDS011;57203;42.672;23.334;2022-07-29T05:52:15;11.6;;;7.1;;
69917;SDS011;57203;42.672;23.334;2022-07-29T05:53:15;10.7;;;7.3;;
69917;SDS011;57203;42.672;23.334;2022-07-29T05:54:15;9.8;;;7.2;;
69917;SDS011;57203;42.672;23.334;2022-07-29T05:55:16;10.3;;;7.0;;
69917;SDS011;57203;42.672;23.334;2022-07-29T05:56:16;8.2;;;8.2;;
69917;SDS011;57203;42.672;23.334;2022-07-29T05:57:16;12.9;;;7.8;;
69917;SDS011;57203;42.672;23.334;2022-07-29T05:58:16;11.2;;;7.5;;
69917;SDS011;57203;42.672;23.334;2022-07-29T05:59:17;13.4;;;8.0;;
69917;SDS011;57203;42.672;23.334;2022-07-29T06:00:17;11.6;;;7.0;;
69917;SDS011;57203;42.672;23.334;2022-07-29T06:02:17;10.0;;;7.2;;
69917;SDS011;57203;42.672;23.334;2022-07-29T06:03:18;10.0;;;6.8;;
69917;SDS011;57203;42.672;23.334;2022-07-29T06:04:18;9.1;;;6.6;;
69917;SDS011;57203;42.672;23.334;2022-07-29T06:05:18;7.5;;;6.4;;
69917;SDS011;57203;42.672;23.334;2022-07-29T06:06:18;8.6;;;6.6;;
69917;SDS011;57203;42.672;23.334;2022-07-29T06:07:18;11.2;;;6.1;;
69917;SDS011;57203;42.672;23.334;2022-07-29T06:08:19;7.4;;;6.8;;
69917;SDS011;57203;42.672;23.334;2022-07-29T06:09:19;14.0;;;7.3;;
69917;SDS011;57203;42.672;23.334;2022-07-29T06:10:19;10.5;;;6.2;;
69917;SDS011;57203;42.672;23.334;2022-07-29T06:12:20;9.2;;;6.5;;
69917;SDS011;57203;42.672;23.334;2022-07-29T06:13:20;11.8;;;5.7;;
69917;SDS011;57203;42.672;23.334;2022-07-29T06:14:20;7.5;;;5.9;;
69917;SDS011;57203;42.672;23.334;2022-07-29T06:15:20;6.9;;;5.5;;
69917;SDS011;57203;42.672;23.334;2022-07-29T06:16:21;7.3;;;6.1;;
69917;SDS011;57203;42.672;23.334;2022-07-29T06:17:21;7.2;;;5.8;;
69917;SDS011;57203;42.672;23.334;2022-07-29T06:18:21;7.5;;;5.9;;
69917;SDS011;57203;42.672;23.334;2022-07-29T06:19:21;10.6;;;5.8;;
69917;SDS011;57203;42.672;23.334;2022-07-29T06:20:22;6.7;;;5.4;;
69917;SDS011;57203;42.672;23.334;2022-07-29T06:21:22;7.4;;;5.9;;
69917;SDS011;57203;42.672;23.334;2022-07-29T06:22:22;8.4;;;6.0;;
69917;SDS011;57203;42.672;23.334;2022-07-29T06:23:22;8.4;;;6.9;;
69917;SDS011;57203;42.672;23.334;2022-07-29T06:24:23;8.3;;;6.1;;
69917;SDS011;57203;42.672;23.334;2022-07-29T06:25:23;8.3;;;5.8;;
69917;SDS011;57203;42.672;23.334;2022-07-29T06:26:23;11.2;;;6.2;;